Flagstaff, Arizona
Current Conditions -  °F | °C
As of 4:57 AM on Saturday 25 Oct 2014 (Local Time) from KFLG Reporting Station
Clear Clear  
Wind Chill:   Ceiling: Unl
Heat Index:   Visibility: 10mi
Dew Point:   Wind: 0mph
Humidity: 86%   Direction: NA
Pressure: 30.35"   Gusts: NA
Location:  35.2°N, 111.65°W
Report Text: KFLG 251157Z AUTO 00000KT 10SM CLR 02/00 A3035 RMK AO2 SLP208 T00220000 10050 20022 56007 TSNO
Loading
Personal Weather Stations






























Interactive Weather Map
Tropical Storm Tracking
New forecast layout! Learn more

10-Day Weather Forecast

Advertisements
Track Severe Weather on mobile